Bowling Green, Illinois
Current Conditions -  °F | °C
As of 8:35 PM on Wednesday 17 Dec 2014 (Local Time) from K1H2 Reporting Station
Overcast Overcast  
Wind Chill: 22°   Ceiling: 1500
Heat Index: 28°   Visibility: 10mi
Dew Point: 22°   Wind: 5mph
Humidity: 78%   Direction: 330°NNW
Pressure: 30.32"   Gusts: NA
Location:  39.2184°N, 88.9038°W
Report Text: K1H2 180235Z AUTO 33004KT 10SM OVC015 M02/M06 A3032 RMK AO2 T10251058
Loading
Personal Weather Stations






























Interactive Weather Map New forecast layout! Learn more

10-Day Weather Forecast

Advertisements
Track Severe Weather on mobile